Ana Sayfa
METAR-TAF:

METAR-TAF

Havaalanları :

Tôlanaro, Madagaskar

Enlem: 25-02S, Boylam: 046-57E, yükseklik: 8 m

Güncel hava durumu gözlemi

Rapor saat 13:00 UTC de 43 dakika önce yapıldı.
Rüzgar kuzey/kuzeybatıdan 4 kt
Sıcaklık 22°C
Nem 94%
Basınç 1020 hPa
Görüş mesafesi 10 km veya daha fazla
1600 ft yükseklikte parçalı bulutlu
3300 ft yükseklikte parçalı çok bulutlu

METAR: FMSD 241300Z 34004KT 9999 SCT016 BKN033 22/21 Q1020

Saat: 16:43 (13:43 UTC)

Tahmin

Rapor saat 11:00 UTC de 2 saat ve 43 dakika önce yapıldı.
Ayın 24'si saat 12 UTC'den ayın 25'si saat 12 UTC'ye kadar geçerli Tahmin
Rüzgar güney/güneydoğudan 9 kt
Görüş mesafesi 10 km veya daha fazla
1600 ft yükseklikte parçalı bulutlu
3300 ft yükseklikte parçalı çok bulutlu
Olasılık 40% :
Geçici
ayın 24'si saat 12 UTC'den ayın 25'si saat 04 UTC'ye kadar
Görüş mesafesi: 4500 m
sağanak yağmurlar

TAF: FMSD 241100Z 2412/2512 16009KT 9999 SCT016 BKN033 PROB40 TEMPO 2412/2504 4500 SHRA

4.000'den fazla havaalanı için hava durumu gözlemleri ve tahminleri (METAR ve TAF raporları).

Kullanılabilir istasyonlar harita üzerinde sarı ve kırmızı noktalarla gösterilir.

İstasyonun adını görmek için fareyi noktanın üzerinde gezdirin.

Sonrasında hava gözlem ve tahminlerini görmek için tıklayın.

Haritayı değiştirmek için: yaklaştırmak için siyah artı işaretli yeşil düğmeye ve uzaklaştırmak için de eksi işaretli düğmeye hızla tıklayın; bitişik haritalar için yeşil okları kullanın.


METAR-TAF: